createdAt,value
2022-09-18T00:01:52.247Z,23.55
2022-09-18T00:06:53.965Z,23.54
2022-09-18T00:11:56.663Z,23.54
2022-09-18T00:16:58.801Z,23.47
2022-09-18T00:22:00.862Z,23.45
2022-09-18T00:27:02.736Z,23.50
2022-09-18T00:32:04.490Z,23.48
2022-09-18T00:37:06.453Z,23.49
2022-09-18T00:42:12.783Z,23.37
2022-09-18T00:47:22.982Z,23.45
2022-09-18T00:52:31.848Z,23.51
2022-09-18T00:57:38.145Z,23.48
2022-09-18T01:02:41.742Z,23.47
2022-09-18T01:08:05.480Z,23.43
2022-09-18T01:13:32.558Z,23.47
2022-09-18T01:18:57.906Z,23.53
2022-09-18T01:24:28.598Z,23.46
2022-09-18T01:29:51.954Z,23.47
2022-09-18T01:35:36.873Z,23.55
2022-09-18T01:40:41.901Z,23.53
2022-09-18T01:45:50.047Z,23.47
2022-09-18T01:51:01.676Z,23.48
2022-09-18T01:56:10.032Z,23.49
2022-09-18T02:01:16.087Z,23.50
2022-09-18T02:06:29.169Z,23.47
2022-09-18T02:11:33.930Z,23.44
2022-09-18T02:16:49.857Z,23.46
2022-09-18T02:21:54.128Z,23.51
2022-09-18T02:26:57.135Z,23.54
2022-09-18T02:32:02.401Z,23.44
2022-09-18T02:37:34.805Z,23.46
2022-09-18T02:43:18.006Z,23.41
2022-09-18T02:48:33.719Z,23.48
2022-09-18T02:53:47.507Z,23.49
2022-09-18T02:58:56.537Z,23.47
2022-09-18T03:04:06.545Z,23.44
2022-09-18T03:09:08.601Z,23.46
2022-09-18T03:14:11.044Z,23.41
2022-09-18T03:19:14.590Z,23.48
2022-09-18T03:24:16.481Z,23.50
2022-09-18T03:29:18.574Z,23.45
2022-09-18T03:34:20.703Z,23.46
2022-09-18T03:39:22.579Z,23.46
2022-09-18T03:44:24.400Z,23.45
2022-09-18T03:49:26.902Z,23.48
2022-09-18T03:54:28.723Z,23.48
2022-09-18T03:59:31.265Z,23.47
2022-09-18T04:04:33.237Z,23.48
2022-09-18T04:09:35.024Z,23.45
2022-09-18T04:14:36.885Z,23.45
2022-09-18T04:19:38.653Z,23.47
2022-09-18T04:24:40.334Z,23.46
2022-09-18T04:29:42.468Z,23.45
2022-09-18T04:34:44.237Z,23.41
2022-09-18T04:39:47.366Z,23.44
2022-09-18T04:44:49.568Z,23.42
2022-09-18T04:49:51.727Z,23.38
2022-09-18T04:54:53.698Z,23.41
2022-09-18T04:59:55.495Z,23.40
2022-09-18T05:04:57.307Z,23.43
2022-09-18T05:09:59.617Z,23.41
2022-09-18T05:15:01.662Z,23.43
2022-09-18T05:20:03.689Z,23.38
2022-09-18T05:25:06.015Z,23.39
2022-09-18T05:30:08.674Z,23.48
2022-09-18T05:35:10.837Z,23.42
2022-09-18T05:40:12.869Z,23.40
2022-09-18T05:45:17.009Z,23.41
2022-09-18T05:50:18.966Z,23.41
2022-09-18T05:55:21.403Z,23.40
2022-09-18T06:00:24.396Z,23.36
2022-09-18T06:05:27.837Z,23.37
2022-09-18T06:10:32.777Z,23.33
2022-09-18T06:15:36.022Z,23.37
2022-09-18T06:20:37.822Z,23.40
2022-09-18T06:25:39.588Z,23.42
2022-09-18T06:30:41.395Z,23.37
2022-09-18T06:35:43.467Z,23.37
2022-09-18T06:40:52.409Z,23.34
2022-09-18T06:45:55.735Z,23.42
2022-09-18T06:50:59.311Z,23.37
2022-09-18T06:56:03.503Z,23.36
2022-09-18T07:01:05.563Z,23.36
2022-09-18T07:06:10.594Z,23.32
2022-09-18T07:11:12.363Z,23.32
2022-09-18T07:16:14.668Z,23.37
2022-09-18T07:21:16.638Z,23.29
2022-09-18T07:26:19.435Z,23.28
2022-09-18T07:31:21.305Z,23.26
2022-09-18T07:36:23.196Z,23.24
2022-09-18T07:41:25.066Z,23.29
2022-09-18T07:46:26.937Z,23.28
2022-09-18T07:51:29.166Z,23.15
2022-09-18T07:56:30.908Z,23.24
2022-09-18T08:01:34.565Z,23.23
2022-09-18T08:06:36.383Z,23.16
2022-09-18T08:11:38.408Z,23.01
2022-09-18T08:16:40.374Z,23.01
2022-09-18T08:21:42.847Z,22.89
2022-09-18T08:26:44.980Z,22.83
2022-09-18T08:31:47.286Z,22.46
2022-09-18T08:36:49.600Z,22.59
2022-09-18T08:42:10.378Z,22.63
2022-09-18T08:47:34.675Z,22.83
2022-09-18T08:52:42.285Z,22.91
2022-09-18T08:57:48.723Z,22.91
2022-09-18T09:03:29.542Z,22.87
2022-09-18T09:08:57.888Z,22.98
2022-09-18T09:14:11.126Z,23.01
2022-09-18T09:19:44.047Z,22.98
2022-09-18T09:25:18.216Z,23.02
2022-09-18T09:30:21.234Z,23.07
2022-09-18T09:35:29.870Z,23.05
2022-09-18T09:40:47.096Z,23.10
2022-09-18T09:45:51.935Z,23.09
2022-09-18T09:51:03.302Z,23.12
2022-09-18T09:56:42.971Z,23.02
2022-09-18T10:02:09.259Z,23.05
2022-09-18T10:07:25.228Z,23.08
2022-09-18T10:12:30.119Z,23.06
2022-09-18T10:17:37.676Z,23.05
2022-09-18T10:22:40.619Z,23.00
2022-09-18T10:27:43.162Z,22.96
2022-09-18T10:32:45.470Z,22.97
2022-09-18T10:37:48.867Z,23.05
2022-09-18T10:42:55.983Z,23.07
2022-09-18T10:48:14.211Z,23.09
2022-09-18T10:53:27.439Z,23.14
2022-09-18T10:58:32.754Z,23.08
2022-09-18T11:03:45.984Z,23.09
2022-09-18T11:08:51.288Z,23.09
2022-09-18T11:14:01.502Z,23.08
2022-09-18T11:19:11.882Z,23.14
2022-09-18T11:24:26.793Z,23.13
2022-09-18T11:29:29.359Z,23.13
2022-09-18T11:34:33.305Z,23.17
2022-09-18T11:39:39.062Z,23.13
2022-09-18T11:44:40.968Z,23.19
2022-09-18T11:49:49.017Z,23.31
2022-09-18T11:55:20.725Z,23.23
2022-09-18T12:00:26.281Z,23.15
2022-09-18T12:06:04.058Z,23.17
2022-09-18T12:11:17.678Z,23.16
2022-09-18T12:16:37.884Z,23.21
2022-09-18T12:22:15.530Z,23.22
2022-09-18T12:27:32.658Z,23.19
2022-09-18T12:32:58.332Z,23.16
2022-09-18T12:38:09.172Z,23.18
2022-09-18T12:43:39.581Z,23.07
2022-09-18T12:49:03.416Z,23.16
2022-09-18T12:54:37.466Z,23.21
2022-09-18T13:00:08.574Z,23.19
2022-09-18T13:05:18.510Z,23.13
2022-09-18T13:10:31.308Z,23.21
2022-09-18T13:15:40.316Z,23.15
2022-09-18T13:20:45.994Z,23.15
2022-09-18T13:25:51.892Z,23.17
2022-09-18T13:31:15.609Z,23.10
2022-09-18T13:36:45.470Z,23.12
2022-09-18T13:41:51.134Z,22.93
2022-09-18T13:46:55.335Z,23.04
2022-09-18T13:52:17.305Z,23.07
2022-09-18T13:57:20.755Z,23.13
2022-09-18T14:02:31.817Z,23.12
2022-09-18T14:07:34.208Z,23.05
2022-09-18T14:12:36.684Z,23.08
2022-09-18T14:17:39.158Z,23.10
2022-09-18T14:22:41.550Z,23.16
2022-09-18T14:27:57.465Z,23.14
2022-09-18T14:33:03.653Z,23.05
2022-09-18T14:38:39.835Z,23.04
2022-09-18T14:43:51.110Z,23.09
2022-09-18T14:48:53.888Z,23.09
2022-09-18T14:53:59.238Z,23.07
2022-09-18T14:59:07.464Z,23.12
2022-09-18T15:04:17.443Z,23.16
2022-09-18T15:09:29.243Z,23.15
2022-09-18T15:14:40.509Z,23.11
2022-09-18T15:20:20.554Z,23.05
2022-09-18T15:25:34.096Z,23.09
2022-09-18T15:30:36.830Z,23.15
2022-09-18T15:35:39.316Z,23.14
2022-09-18T15:40:41.669Z,23.06
2022-09-18T15:46:02.369Z,23.10
2022-09-18T15:51:14.241Z,23.11
2022-09-18T15:56:21.565Z,23.13
2022-09-18T16:01:29.694Z,23.08
2022-09-18T16:06:33.748Z,23.08
2022-09-18T16:11:37.686Z,23.13
2022-09-18T16:16:39.601Z,23.06
2022-09-18T16:21:44.097Z,23.04
2022-09-18T16:26:46.143Z,23.12
2022-09-18T16:31:49.225Z,23.16
2022-09-18T16:36:51.924Z,23.08
2022-09-18T16:41:54.379Z,23.13
2022-09-18T16:47:06.548Z,23.15
2022-09-18T16:52:09.610Z,23.18
2022-09-18T16:57:16.081Z,23.12
2022-09-18T17:02:24.355Z,23.09
2022-09-18T17:07:30.085Z,22.99
2022-09-18T17:12:32.077Z,22.76
2022-09-18T17:17:34.593Z,22.72
2022-09-18T17:22:37.163Z,22.63
2022-09-18T17:27:43.445Z,22.69
2022-09-18T17:32:48.454Z,22.60
2022-09-18T17:37:51.977Z,22.81
2022-09-18T17:42:54.120Z,22.84
2022-09-18T17:47:56.144Z,22.83
2022-09-18T17:52:57.921Z,22.91
2022-09-18T17:57:59.598Z,22.96
2022-09-18T18:03:01.548Z,22.90
2022-09-18T18:08:03.300Z,22.86
2022-09-18T18:13:06.055Z,22.98
2022-09-18T18:18:07.835Z,22.96
2022-09-18T18:23:13.778Z,22.91
2022-09-18T18:28:16.064Z,22.94
2022-09-18T18:33:18.077Z,22.95
2022-09-18T18:38:20.826Z,22.92
2022-09-18T18:43:23.970Z,22.91
2022-09-18T18:48:25.797Z,23.01
2022-09-18T18:53:27.628Z,22.92
2022-09-18T18:58:31.384Z,22.91
2022-09-18T19:03:39.368Z,22.90
2022-09-18T19:08:46.712Z,22.96
2022-09-18T19:13:53.201Z,22.89
2022-09-18T19:18:58.713Z,22.88
2022-09-18T19:24:00.988Z,22.88
2022-09-18T19:29:07.079Z,22.92
2022-09-18T19:34:14.505Z,22.91
2022-09-18T19:39:17.831Z,22.97
2022-09-18T19:44:34.224Z,22.89
2022-09-18T19:49:38.222Z,22.99
2022-09-18T19:54:39.896Z,22.94
2022-09-18T19:59:42.024Z,22.89
2022-09-18T20:04:44.179Z,23.03
2022-09-18T20:09:46.338Z,22.96
2022-09-18T20:14:48.235Z,23.01
2022-09-18T20:19:50.035Z,22.94
2022-09-18T20:29:54.067Z,22.99
2022-09-18T20:34:56.135Z,22.98
2022-09-18T20:39:57.880Z,23.00
2022-09-18T20:45:02.685Z,22.87
2022-09-18T20:50:06.951Z,22.97
2022-09-18T20:55:12.843Z,22.92
2022-09-18T21:00:16.350Z,22.80
2022-09-18T21:05:18.214Z,22.85
2022-09-18T21:10:19.980Z,22.91
2022-09-18T21:15:21.903Z,22.93
2022-09-18T21:20:23.905Z,22.89
2022-09-18T21:25:26.241Z,22.90
2022-09-18T21:30:28.345Z,22.94
2022-09-18T21:35:30.270Z,22.97
2022-09-18T21:40:32.040Z,22.91
2022-09-18T21:45:36.902Z,22.87
2022-09-18T21:50:39.625Z,23.01
2022-09-18T21:55:41.521Z,23.01
2022-09-18T22:00:43.336Z,22.94
2022-09-18T22:05:45.796Z,22.95
2022-09-18T22:10:47.879Z,22.91
2022-09-18T22:15:53.625Z,22.92
2022-09-18T22:20:57.462Z,22.91
2022-09-18T22:26:04.958Z,22.97
2022-09-18T22:31:07.298Z,22.94
2022-09-18T22:36:09.080Z,23.02
2022-09-18T22:41:10.891Z,22.91
2022-09-18T22:46:15.495Z,22.90
2022-09-18T22:51:21.049Z,22.91
2022-09-18T22:56:24.802Z,22.96
2022-09-18T23:01:33.566Z,22.94
2022-09-18T23:06:35.971Z,22.89
2022-09-18T23:11:37.576Z,22.93
2022-09-18T23:16:39.308Z,22.91
2022-09-18T23:21:41.168Z,22.93
2022-09-18T23:26:45.125Z,22.96
2022-09-18T23:31:50.768Z,22.91
2022-09-18T23:36:54.904Z,22.92
2022-09-18T23:41:59.055Z,22.94
2022-09-18T23:47:00.966Z,22.88
2022-09-18T23:52:02.997Z,22.88
2022-09-18T23:57:04.754Z,22.88
